createdAt,value
2018-12-01T00:00:22.985Z,3.43
2018-12-01T00:01:22.949Z,3.45
2018-12-01T00:02:22.896Z,3.50
2018-12-01T00:03:22.854Z,3.57
2018-12-01T00:04:22.801Z,3.55
2018-12-01T00:05:22.758Z,3.50
2018-12-01T00:06:22.723Z,3.58
2018-12-01T00:07:22.709Z,3.62
2018-12-01T00:08:22.629Z,3.60
2018-12-01T00:09:22.602Z,3.57
2018-12-01T00:10:22.539Z,3.58
2018-12-01T00:11:22.495Z,3.57
2018-12-01T00:12:22.453Z,3.58
2018-12-01T00:13:22.426Z,3.43
2018-12-01T00:14:22.375Z,3.36
2018-12-01T00:15:22.365Z,3.28
2018-12-01T00:16:22.288Z,3.23
2018-12-01T00:17:22.235Z,3.20
2018-12-01T00:18:22.202Z,3.32
2018-12-01T00:19:22.154Z,3.31
2018-12-01T00:20:22.116Z,3.21
2018-12-01T00:21:22.057Z,3.21
2018-12-01T00:22:22.035Z,3.15
2018-12-01T00:23:21.971Z,3.15
2018-12-01T00:24:21.927Z,3.03
2018-12-01T00:25:21.899Z,3.05
2018-12-01T00:26:21.854Z,3.08
2018-12-01T00:27:21.799Z,3.05
2018-12-01T00:28:21.788Z,3.10
2018-12-01T00:29:21.710Z,3.15
2018-12-01T00:30:21.671Z,3.11
2018-12-01T00:31:21.648Z,3.14
2018-12-01T00:32:21.576Z,3.23
2018-12-01T00:33:21.528Z,3.15
2018-12-01T00:34:21.492Z,3.17
2018-12-01T00:35:21.452Z,3.18
2018-12-01T00:36:21.401Z,3.20
2018-12-01T00:37:21.351Z,3.23
2018-12-01T00:38:21.333Z,3.24
2018-12-01T00:39:21.315Z,3.29
2018-12-01T00:40:21.245Z,3.14
2018-12-01T00:41:21.212Z,3.13
2018-12-01T00:42:21.141Z,3.15
2018-12-01T00:43:21.129Z,3.13
2018-12-01T00:44:21.087Z,3.05
2018-12-01T00:45:21.019Z,3.05
2018-12-01T00:46:20.980Z,3.13
2018-12-01T00:47:20.940Z,3.06
2018-12-01T00:48:20.887Z,3.21
2018-12-01T00:49:20.854Z,3.21
2018-12-01T00:50:20.799Z,3.21
2018-12-01T00:51:20.752Z,3.10
2018-12-01T00:52:20.708Z,3.14
2018-12-01T00:53:20.671Z,3.11
2018-12-01T00:54:20.623Z,3.17
2018-12-01T00:55:20.574Z,3.10
2018-12-01T00:56:20.569Z,3.08
2018-12-01T00:57:20.493Z,3.14
2018-12-01T00:58:20.461Z,3.08
2018-12-01T00:59:20.402Z,3.17
2018-12-01T01:00:20.362Z,3.18
2018-12-01T01:01:20.342Z,3.23
2018-12-01T01:02:20.266Z,3.26
2018-12-01T01:03:20.224Z,3.20
2018-12-01T01:04:20.181Z,3.20
2018-12-01T01:05:20.146Z,3.33
2018-12-01T01:06:20.097Z,3.31
2018-12-01T01:07:20.096Z,3.23
2018-12-01T01:08:20.010Z,3.21
2018-12-01T01:09:19.967Z,3.24
2018-12-01T01:10:19.935Z,3.21
2018-12-01T01:11:19.869Z,3.29
2018-12-01T01:12:19.837Z,3.24
2018-12-01T01:13:19.797Z,3.32
2018-12-01T01:14:19.762Z,3.21
2018-12-01T01:15:19.713Z,3.21
2018-12-01T01:16:19.657Z,3.24
2018-12-01T01:17:19.620Z,3.17
2018-12-01T01:18:19.586Z,3.26
2018-12-01T01:19:19.563Z,3.20
2018-12-01T01:20:19.484Z,3.21
2018-12-01T01:21:19.440Z,3.23
2018-12-01T01:22:19.406Z,3.47
2018-12-01T01:23:19.351Z,3.45
2018-12-01T01:24:19.327Z,3.58
2018-12-01T01:25:19.270Z,3.62
2018-12-01T01:26:19.275Z,3.68
2018-12-01T01:27:19.186Z,3.70
2018-12-01T01:28:19.144Z,3.76
2018-12-01T01:29:19.099Z,3.72
2018-12-01T01:30:19.083Z,3.75
2018-12-01T01:31:19.018Z,3.57
2018-12-01T01:32:18.972Z,3.43
2018-12-01T01:33:18.951Z,3.45
2018-12-01T01:34:18.887Z,3.45
2018-12-01T01:35:18.847Z,3.43
2018-12-01T01:36:18.802Z,3.45
2018-12-01T01:37:18.757Z,3.33
2018-12-01T01:38:18.727Z,3.28
2018-12-01T01:39:18.667Z,3.28
2018-12-01T01:40:18.640Z,3.43
2018-12-01T01:41:18.608Z,3.58
2018-12-01T01:42:18.542Z,3.60
2018-12-01T01:43:18.508Z,3.57
2018-12-01T01:44:18.472Z,3.68
2018-12-01T01:45:18.422Z,3.75
2018-12-01T01:46:18.364Z,3.76
2018-12-01T01:47:18.327Z,3.79
2018-12-01T01:48:18.287Z,3.72
2018-12-01T01:49:18.245Z,3.75
2018-12-01T01:50:18.193Z,3.79
2018-12-01T01:51:18.144Z,3.80
2018-12-01T01:52:18.089Z,3.80
2018-12-01T01:53:18.111Z,3.86
2018-12-01T01:54:18.011Z,3.86
2018-12-01T01:55:17.993Z,3.88
2018-12-01T01:56:17.919Z,3.96
2018-12-01T01:57:17.890Z,3.98
2018-12-01T01:58:17.836Z,3.91
2018-12-01T01:59:17.809Z,3.96
2018-12-01T02:00:17.750Z,4.05
2018-12-01T02:01:17.713Z,3.98
2018-12-01T02:02:17.657Z,3.98
2018-12-01T02:03:17.616Z,4.02
2018-12-01T02:04:17.579Z,4.05
2018-12-01T02:05:17.539Z,4.06
2018-12-01T02:06:17.491Z,4.05
2018-12-01T02:07:17.451Z,4.04
2018-12-01T02:08:17.411Z,4.06
2018-12-01T02:09:17.360Z,4.11
2018-12-01T02:10:17.328Z,4.02
2018-12-01T02:11:17.267Z,4.08
2018-12-01T02:12:17.242Z,4.02
2018-12-01T02:13:17.197Z,4.06
2018-12-01T02:14:17.149Z,4.09
2018-12-01T02:15:17.129Z,4.04
2018-12-01T02:16:17.056Z,4.00
2018-12-01T02:17:17.040Z,4.05
2018-12-01T02:18:16.989Z,4.05
2018-12-01T02:19:16.954Z,4.05
2018-12-01T02:20:16.894Z,4.04
2018-12-01T02:21:16.933Z,4.12
2018-12-01T02:22:16.811Z,4.08
2018-12-01T02:23:16.815Z,4.11
2018-12-01T02:24:16.735Z,4.11
2018-12-01T02:25:16.668Z,4.12
2018-12-01T02:26:16.637Z,4.00
2018-12-01T02:27:16.619Z,4.09
2018-12-01T02:28:16.574Z,4.04
2018-12-01T02:29:16.503Z,4.08
2018-12-01T02:30:16.491Z,4.11
2018-12-01T02:31:16.416Z,4.14
2018-12-01T02:32:16.376Z,4.15
2018-12-01T02:33:16.334Z,4.09
2018-12-01T02:34:16.305Z,4.05
2018-12-01T02:35:16.253Z,4.09
2018-12-01T02:36:16.219Z,4.05
2018-12-01T02:37:16.191Z,3.98
2018-12-01T02:38:16.125Z,4.08
2018-12-01T02:39:16.074Z,4.09
2018-12-01T02:40:16.027Z,3.97
2018-12-01T02:41:16.015Z,3.97
2018-12-01T02:42:15.957Z,3.87
2018-12-01T02:43:15.929Z,3.86
2018-12-01T02:44:15.890Z,3.73
2018-12-01T02:45:15.812Z,3.72
2018-12-01T02:46:15.780Z,3.79
2018-12-01T02:47:15.735Z,3.83
2018-12-01T02:48:15.701Z,3.79
2018-12-01T02:49:15.667Z,3.79
2018-12-01T02:50:15.612Z,3.87
2018-12-01T02:51:15.575Z,3.80
2018-12-01T02:52:15.522Z,3.78
2018-12-01T02:53:15.472Z,3.78
2018-12-01T02:54:15.447Z,3.83
2018-12-01T02:55:15.377Z,3.84
2018-12-01T02:56:15.349Z,3.83
2018-12-01T02:57:15.288Z,3.73
2018-12-01T02:58:15.267Z,3.78
2018-12-01T02:59:15.220Z,3.73
2018-12-01T03:00:15.200Z,3.61
2018-12-01T03:01:15.137Z,3.58
2018-12-01T03:02:15.098Z,3.54
2018-12-01T03:03:15.062Z,3.52
2018-12-01T03:04:15.003Z,3.42
2018-12-01T03:05:14.952Z,3.40
2018-12-01T03:06:14.921Z,3.45
2018-12-01T03:07:14.877Z,3.51
2018-12-01T03:08:14.823Z,3.52
2018-12-01T03:09:14.784Z,3.57
2018-12-01T03:10:14.738Z,3.48
2018-12-01T03:11:14.708Z,3.55
2018-12-01T03:12:14.669Z,3.54
2018-12-01T03:13:14.595Z,3.52
2018-12-01T03:14:14.559Z,3.55
2018-12-01T03:15:14.512Z,3.66
2018-12-01T03:16:14.496Z,3.58
2018-12-01T03:17:14.431Z,3.54
2018-12-01T03:18:14.399Z,3.58
2018-12-01T03:19:14.362Z,3.55
2018-12-01T03:20:14.309Z,3.51
2018-12-01T03:21:14.254Z,3.57
2018-12-01T03:22:14.235Z,3.55
2018-12-01T03:23:14.169Z,3.73
2018-12-01T03:24:14.146Z,3.69
2018-12-01T03:25:14.102Z,3.70
2018-12-01T03:26:14.051Z,3.55
2018-12-01T03:27:14.071Z,3.52
2018-12-01T03:28:13.968Z,3.45
2018-12-01T03:29:13.922Z,3.43
2018-12-01T03:30:13.893Z,3.40
2018-12-01T03:31:13.826Z,3.45
2018-12-01T03:32:13.794Z,3.40
2018-12-01T03:33:13.741Z,3.39
2018-12-01T03:34:13.729Z,3.48
2018-12-01T03:35:13.655Z,3.43
2018-12-01T03:36:13.618Z,3.39
2018-12-01T03:37:13.575Z,3.60
2018-12-01T03:38:13.634Z,3.58
2018-12-01T03:39:13.484Z,3.58
2018-12-01T03:40:13.437Z,3.58
2018-12-01T03:41:13.406Z,3.54
2018-12-01T03:42:13.372Z,3.61
2018-12-01T03:43:13.325Z,3.68
2018-12-01T03:44:13.324Z,3.52
2018-12-01T03:45:13.221Z,3.66
2018-12-01T03:46:13.181Z,3.61
2018-12-01T03:47:13.144Z,3.68
2018-12-01T03:48:13.096Z,3.61
2018-12-01T03:49:13.036Z,3.73
2018-12-01T03:50:13.009Z,3.68
2018-12-01T03:51:12.972Z,3.78
2018-12-01T03:52:12.914Z,3.79
2018-12-01T03:53:12.887Z,3.73
2018-12-01T03:54:12.849Z,3.72
2018-12-01T03:55:12.792Z,3.75
2018-12-01T03:56:12.738Z,3.83
2018-12-01T03:57:12.690Z,3.76
2018-12-01T03:58:12.648Z,3.75
2018-12-01T03:59:12.608Z,3.54
2018-12-01T04:00:12.574Z,3.50
2018-12-01T04:01:12.525Z,3.39
2018-12-01T04:02:12.492Z,3.40
2018-12-01T04:03:12.439Z,3.55
2018-12-01T04:04:12.388Z,3.58
2018-12-01T04:05:12.341Z,3.70
2018-12-01T04:06:12.302Z,3.65
2018-12-01T04:07:12.268Z,3.68
2018-12-01T04:08:12.212Z,3.55
2018-12-01T04:09:12.194Z,3.52
2018-12-01T04:10:12.125Z,3.51
2018-12-01T04:11:12.090Z,3.24
2018-12-01T04:12:12.035Z,3.18
2018-12-01T04:13:12.030Z,3.23
2018-12-01T04:14:11.944Z,3.23
2018-12-01T04:15:11.920Z,3.08
2018-12-01T04:16:11.872Z,3.10
2018-12-01T04:17:11.827Z,3.10
2018-12-01T04:18:11.781Z,2.95
2018-12-01T04:19:11.768Z,3.26
2018-12-01T04:20:11.699Z,3.11
2018-12-01T04:21:11.653Z,3.29
2018-12-01T04:22:11.610Z,3.39
2018-12-01T04:23:11.556Z,3.43
2018-12-01T04:24:11.534Z,3.40
2018-12-01T04:25:11.489Z,3.47
2018-12-01T04:26:11.452Z,3.54
2018-12-01T04:27:11.386Z,3.48
2018-12-01T04:28:11.345Z,3.58
2018-12-01T04:29:11.296Z,3.48
2018-12-01T04:30:11.259Z,3.60
2018-12-01T04:31:11.220Z,3.55
2018-12-01T04:32:11.173Z,3.52
2018-12-01T04:33:11.128Z,3.55
2018-12-01T04:34:11.080Z,3.54
2018-12-01T04:35:11.036Z,3.72
2018-12-01T04:36:10.996Z,3.79
2018-12-01T04:37:10.949Z,3.75
2018-12-01T04:38:10.896Z,3.79
2018-12-01T04:39:10.872Z,3.80
2018-12-01T04:40:10.837Z,3.79
2018-12-01T04:41:10.765Z,3.80
2018-12-01T04:42:10.731Z,3.86
2018-12-01T04:43:10.737Z,3.78
2018-12-01T04:44:10.652Z,3.79
2018-12-01T04:45:10.605Z,3.87
2018-12-01T04:46:10.558Z,3.78
2018-12-01T04:47:10.510Z,3.76
2018-12-01T04:48:10.468Z,3.69
2018-12-01T04:49:10.439Z,3.58
2018-12-01T04:50:10.401Z,3.58
2018-12-01T04:51:10.342Z,3.55
2018-12-01T04:52:10.296Z,3.51
2018-12-01T04:53:10.276Z,3.58
2018-12-01T04:54:10.215Z,3.51
2018-12-01T04:55:10.174Z,3.57
2018-12-01T04:56:10.135Z,3.54
2018-12-01T04:57:10.101Z,3.66
2018-12-01T04:58:10.091Z,3.58
2018-12-01T04:59:09.993Z,3.51
2018-12-01T05:00:09.950Z,3.58
2018-12-01T05:01:09.962Z,3.40
2018-12-01T05:02:09.882Z,3.23
2018-12-01T05:03:09.834Z,3.32
2018-12-01T05:04:09.765Z,3.28
2018-12-01T05:05:09.766Z,3.21
2018-12-01T05:06:09.687Z,3.32
2018-12-01T05:07:09.688Z,3.23
2018-12-01T05:08:09.603Z,3.28
2018-12-01T05:09:09.571Z,3.47
2018-12-01T05:10:09.521Z,3.54
2018-12-01T05:11:09.471Z,3.55
2018-12-01T05:12:09.452Z,3.68
2018-12-01T05:13:09.417Z,3.70
2018-12-01T05:14:09.367Z,3.72
2018-12-01T05:15:09.317Z,3.62
2018-12-01T05:16:09.262Z,3.54
2018-12-01T05:17:09.229Z,3.68
2018-12-01T05:18:09.179Z,3.62
2018-12-01T05:19:09.130Z,3.69
2018-12-01T05:20:09.095Z,3.73
2018-12-01T05:21:09.063Z,3.65
2018-12-01T05:22:09.013Z,3.83
2018-12-01T05:23:08.963Z,3.72
2018-12-01T05:24:08.924Z,3.75
2018-12-01T05:25:08.846Z,3.66
2018-12-01T05:26:08.848Z,3.66
2018-12-01T05:27:08.780Z,3.76
2018-12-01T05:28:08.740Z,3.61
2018-12-01T05:29:08.699Z,3.55
2018-12-01T05:30:08.708Z,3.51
2018-12-01T05:31:08.648Z,3.48
2018-12-01T05:32:08.559Z,3.42
2018-12-01T05:33:08.521Z,3.42
2018-12-01T05:34:08.560Z,3.43
2018-12-01T05:35:08.432Z,3.50
2018-12-01T05:36:08.378Z,3.55
2018-12-01T05:37:08.354Z,3.48
2018-12-01T05:38:08.297Z,3.48
2018-12-01T05:39:08.271Z,3.43
2018-12-01T05:40:08.213Z,3.58
2018-12-01T05:41:08.160Z,3.54
2018-12-01T05:42:08.132Z,3.45
2018-12-01T05:43:08.081Z,3.51
2018-12-01T05:44:08.030Z,3.45
2018-12-01T05:45:08.018Z,3.55
2018-12-01T05:46:07.964Z,3.50
2018-12-01T05:47:07.911Z,3.51
2018-12-01T05:48:07.868Z,3.55
2018-12-01T05:49:07.824Z,3.45
2018-12-01T05:50:07.778Z,3.45
2018-12-01T05:51:07.765Z,3.43
2018-12-01T05:52:07.701Z,3.45
2018-12-01T05:53:07.659Z,3.47
2018-12-01T05:54:07.608Z,3.43
2018-12-01T05:55:07.568Z,3.54
2018-12-01T05:56:07.522Z,3.54
2018-12-01T05:57:07.482Z,3.61
2018-12-01T05:58:07.449Z,3.52
2018-12-01T05:59:07.380Z,3.54
2018-12-01T06:00:07.362Z,3.54
2018-12-01T06:01:07.320Z,3.68
2018-12-01T06:02:07.261Z,3.55
2018-12-01T06:03:07.222Z,3.69
2018-12-01T06:04:07.168Z,3.68
2018-12-01T06:05:07.115Z,3.73
2018-12-01T06:06:07.081Z,3.62
2018-12-01T06:07:07.042Z,3.75
2018-12-01T06:08:07.026Z,3.66
2018-12-01T06:09:06.963Z,3.62
2018-12-01T06:10:06.893Z,3.72
2018-12-01T06:11:06.868Z,3.58
2018-12-01T06:12:06.812Z,3.58
2018-12-01T06:13:06.801Z,3.72
2018-12-01T06:14:06.737Z,3.75
2018-12-01T06:15:06.720Z,3.57
2018-12-01T06:16:06.661Z,3.70
2018-12-01T06:17:06.609Z,3.62
2018-12-01T06:18:06.561Z,3.76
2018-12-01T06:19:06.525Z,3.80
2018-12-01T06:20:06.497Z,3.80
2018-12-01T06:21:06.435Z,3.75
2018-12-01T06:22:06.382Z,3.76
2018-12-01T06:23:06.348Z,3.87
2018-12-01T06:24:06.325Z,3.80
2018-12-01T06:25:06.258Z,3.80
2018-12-01T06:26:06.243Z,3.90
2018-12-01T06:27:06.180Z,3.87
2018-12-01T06:28:06.149Z,3.98
2018-12-01T06:29:06.119Z,3.96
2018-12-01T06:30:06.042Z,3.96
2018-12-01T06:31:05.981Z,4.00
2018-12-01T06:32:05.965Z,3.94
2018-12-01T06:33:05.912Z,3.88
2018-12-01T06:34:05.872Z,3.87
2018-12-01T06:35:05.828Z,3.91
2018-12-01T06:36:05.786Z,3.91
2018-12-01T06:37:05.737Z,3.98
2018-12-01T06:38:05.676Z,4.04
2018-12-01T06:39:05.635Z,4.12
2018-12-01T06:40:05.649Z,4.22
2018-12-01T06:41:05.545Z,4.14
2018-12-01T06:42:05.524Z,4.11
2018-12-01T06:43:05.500Z,4.18
2018-12-01T06:44:05.459Z,4.16
2018-12-01T06:45:05.421Z,4.18
2018-12-01T06:46:05.392Z,4.11
2018-12-01T06:47:05.318Z,4.12
2018-12-01T06:48:05.258Z,4.09
2018-12-01T06:49:05.212Z,4.12
2018-12-01T06:50:05.179Z,4.05
2018-12-01T06:51:05.123Z,4.12
2018-12-01T06:52:05.088Z,4.02
2018-12-01T06:53:05.056Z,4.08
2018-12-01T06:54:05.001Z,4.16
2018-12-01T06:55:04.944Z,4.15
2018-12-01T06:56:04.906Z,4.16
2018-12-01T06:57:04.851Z,4.16
2018-12-01T06:58:04.815Z,4.18
2018-12-01T06:59:04.792Z,4.18
2018-12-01T07:00:04.722Z,4.24
2018-12-01T07:01:04.696Z,4.16
2018-12-01T07:02:04.644Z,4.30
2018-12-01T07:03:04.594Z,4.37
2018-12-01T07:04:04.567Z,4.33
2018-12-01T07:05:04.520Z,4.30
2018-12-01T07:06:04.484Z,4.32
2018-12-01T07:07:04.437Z,4.30
2018-12-01T07:08:04.397Z,4.33
2018-12-01T07:09:04.339Z,4.34
2018-12-01T07:10:04.324Z,4.24
2018-12-01T07:11:04.316Z,4.20
2018-12-01T07:12:04.239Z,4.33
2018-12-01T07:13:04.176Z,4.37
2018-12-01T07:14:04.119Z,4.34
2018-12-01T07:15:04.082Z,4.32
2018-12-01T07:16:04.081Z,4.32
2018-12-01T07:17:04.028Z,4.36
2018-12-01T07:18:04.009Z,4.29
2018-12-01T07:19:03.901Z,4.32
2018-12-01T07:20:03.938Z,4.29
2018-12-01T07:21:03.824Z,4.29
2018-12-01T07:22:03.997Z,4.33
2018-12-01T07:23:03.922Z,4.32
2018-12-01T07:24:03.705Z,4.27
2018-12-01T07:25:03.715Z,4.41
2018-12-01T07:26:03.609Z,4.27
2018-12-01T07:27:03.595Z,4.45
2018-12-01T07:28:03.534Z,4.42
2018-12-01T07:29:03.494Z,4.52
2018-12-01T07:30:03.502Z,4.59
2018-12-01T07:31:03.400Z,4.67
2018-12-01T07:32:03.423Z,4.65
2018-12-01T07:33:03.311Z,4.58
2018-12-01T07:34:03.275Z,4.51
2018-12-01T07:35:03.228Z,4.59
2018-12-01T07:36:03.216Z,4.62
2018-12-01T07:37:03.156Z,4.62
2018-12-01T07:38:03.095Z,4.59
2018-12-01T07:39:03.049Z,4.66
2018-12-01T07:40:03.002Z,4.67
2018-12-01T07:41:02.970Z,4.66
2018-12-01T07:42:02.915Z,4.85
2018-12-01T07:43:02.900Z,4.82
2018-12-01T07:44:02.846Z,4.85
2018-12-01T07:45:02.803Z,4.96
2018-12-01T07:46:02.748Z,4.92
2018-12-01T07:47:02.694Z,5.03
2018-12-01T07:48:02.669Z,5.04
2018-12-01T07:49:02.611Z,4.97
2018-12-01T07:50:02.574Z,4.94
2018-12-01T07:51:02.526Z,5.13
2018-12-01T07:52:02.498Z,5.17
2018-12-01T07:53:02.440Z,5.22
2018-12-01T07:54:02.409Z,5.35
2018-12-01T07:55:02.365Z,5.33
2018-12-01T07:56:02.304Z,5.35
2018-12-01T07:57:02.282Z,5.42
2018-12-01T07:58:02.248Z,5.42
2018-12-01T07:59:02.216Z,5.48
2018-12-01T08:00:02.136Z,5.49
2018-12-01T08:01:02.096Z,5.51
2018-12-01T08:02:02.145Z,5.53
2018-12-01T08:03:02.019Z,5.60
2018-12-01T08:04:01.985Z,5.57
2018-12-01T08:05:01.982Z,5.58
2018-12-01T08:06:01.894Z,5.67
2018-12-01T08:07:01.857Z,5.78
2018-12-01T08:08:01.812Z,5.67
2018-12-01T08:09:01.764Z,5.71
2018-12-01T08:10:01.722Z,5.71
2018-12-01T08:11:01.682Z,5.78
2018-12-01T08:12:01.648Z,6.11
2018-12-01T08:13:01.593Z,6.14
2018-12-01T08:14:01.562Z,6.21
2018-12-01T08:15:01.505Z,6.28
2018-12-01T08:16:01.473Z,6.30
2018-12-01T08:17:01.425Z,6.43
2018-12-01T08:18:01.380Z,6.44
2018-12-01T08:19:01.342Z,6.46
2018-12-01T08:20:01.324Z,6.46
2018-12-01T08:21:01.267Z,6.46
2018-12-01T08:22:01.242Z,6.46
2018-12-01T08:23:01.213Z,6.49
2018-12-01T08:24:01.164Z,6.46
2018-12-01T08:25:01.094Z,6.41
2018-12-01T08:26:01.092Z,6.44
2018-12-01T08:27:01.021Z,6.46
2018-12-01T08:28:00.965Z,6.43
2018-12-01T08:29:00.931Z,6.46
2018-12-01T08:30:00.875Z,6.51
2018-12-01T08:31:00.856Z,6.54
2018-12-01T08:32:00.819Z,6.59
2018-12-01T08:33:00.766Z,6.64
2018-12-01T08:34:00.727Z,6.70
2018-12-01T08:35:00.679Z,6.73
2018-12-01T08:36:00.647Z,6.87
2018-12-01T08:37:00.592Z,6.87
2018-12-01T08:38:00.542Z,6.85
2018-12-01T08:39:00.504Z,6.88
2018-12-01T08:40:00.505Z,6.89
2018-12-01T08:41:00.419Z,6.89
2018-12-01T08:42:00.402Z,6.89
2018-12-01T08:43:00.337Z,6.85
2018-12-01T08:44:00.292Z,6.89
2018-12-01T08:45:00.269Z,7.02
2018-12-01T08:46:00.246Z,6.99
2018-12-01T08:47:00.264Z,7.05
2018-12-01T08:48:00.131Z,7.06
2018-12-01T08:49:00.091Z,7.06
2018-12-01T08:50:00.058Z,7.21
2018-12-01T08:51:00.077Z,7.20
2018-12-01T08:51:59.981Z,7.31
2018-12-01T08:52:59.932Z,7.45
2018-12-01T08:53:59.892Z,7.52
2018-12-01T08:54:59.841Z,7.61
2018-12-01T08:55:59.813Z,7.75
2018-12-01T08:56:59.794Z,7.82
2018-12-01T08:57:59.728Z,7.93
2018-12-01T08:58:59.675Z,7.98
2018-12-01T08:59:59.669Z,8.12
2018-12-01T09:00:59.607Z,8.10
2018-12-01T09:01:59.556Z,8.25
2018-12-01T09:02:59.523Z,8.25
2018-12-01T09:03:59.473Z,8.18
2018-12-01T09:04:59.423Z,8.43
2018-12-01T09:05:59.459Z,8.58
2018-12-01T09:06:59.420Z,8.91
2018-12-01T09:07:59.305Z,9.65
2018-12-01T09:08:59.275Z,10.29
2018-12-01T09:09:59.228Z,10.84
2018-12-01T09:10:59.331Z,11.35
2018-12-01T09:11:59.160Z,11.61
2018-12-01T09:13:01.602Z,11.21
2018-12-01T09:13:59.091Z,11.22
2018-12-01T09:14:59.037Z,11.32
2018-12-01T09:15:59.000Z,11.46
2018-12-01T09:16:58.970Z,11.44
2018-12-01T09:17:58.948Z,11.44
2018-12-01T09:18:58.894Z,11.60
2018-12-01T09:19:58.870Z,11.54
2018-12-01T09:20:58.830Z,11.67
2018-12-01T09:21:58.805Z,11.62
2018-12-01T09:22:58.799Z,11.90
2018-12-01T09:23:58.741Z,12.21
2018-12-01T09:24:58.722Z,12.23
2018-12-01T09:25:58.663Z,12.13
2018-12-01T09:26:58.771Z,12.35
2018-12-01T09:27:58.595Z,12.23
2018-12-01T09:28:58.667Z,12.42
2018-12-01T09:29:58.532Z,12.50
2018-12-01T09:30:58.488Z,12.90
2018-12-01T09:31:58.463Z,13.07
2018-12-01T09:32:58.427Z,13.33
2018-12-01T09:33:58.389Z,13.49
2018-12-01T09:34:58.362Z,13.48
2018-12-01T09:35:58.361Z,13.41
2018-12-01T09:36:58.292Z,13.30
2018-12-01T09:37:58.311Z,13.41
2018-12-01T09:38:58.282Z,13.22
2018-12-01T09:39:58.226Z,13.44
2018-12-01T09:40:58.200Z,13.54
2018-12-01T09:41:58.167Z,13.71
2018-12-01T09:42:58.115Z,13.22
2018-12-01T09:43:58.147Z,12.41
2018-12-01T09:44:58.061Z,12.35
2018-12-01T09:45:58.055Z,12.39
2018-12-01T09:46:58.040Z,12.05
2018-12-01T09:47:57.965Z,11.49
2018-12-01T09:48:57.944Z,11.04
2018-12-01T09:49:57.925Z,10.78
2018-12-01T09:50:57.882Z,10.70
2018-12-01T09:51:57.858Z,10.59
2018-12-01T09:52:57.836Z,10.42
2018-12-01T09:53:57.800Z,10.45
2018-12-01T09:54:57.775Z,10.48
2018-12-01T09:55:57.729Z,10.33
2018-12-01T09:56:57.714Z,10.12
2018-12-01T09:57:57.669Z,9.84
2018-12-01T09:58:57.638Z,9.84
2018-12-01T09:59:57.607Z,9.68
2018-12-01T10:00:57.589Z,9.58
2018-12-01T10:01:57.548Z,9.58
2018-12-01T10:02:57.507Z,9.48
2018-12-01T10:03:57.474Z,9.56
2018-12-01T10:04:57.445Z,9.61
2018-12-01T10:05:57.429Z,9.61
2018-12-01T10:06:57.373Z,9.94
2018-12-01T10:07:57.341Z,10.68
2018-12-01T10:08:57.305Z,11.03
2018-12-01T10:09:57.284Z,10.82
2018-12-01T10:10:57.223Z,10.71
2018-12-01T10:11:57.214Z,10.63
2018-12-01T10:12:57.159Z,10.86
2018-12-01T10:13:57.127Z,11.18
2018-12-01T10:14:57.107Z,11.03
2018-12-01T10:15:57.053Z,11.24
2018-12-01T10:16:57.038Z,11.17
2018-12-01T10:17:56.998Z,11.21
2018-12-01T10:18:56.978Z,10.94
2018-12-01T10:19:56.933Z,11.14
2018-12-01T10:20:56.889Z,11.57
2018-12-01T10:21:56.859Z,11.37
2018-12-01T10:22:56.819Z,11.14
2018-12-01T10:23:56.797Z,11.15
2018-12-01T10:24:56.757Z,11.06
2018-12-01T10:25:56.718Z,10.86
2018-12-01T10:26:56.701Z,10.89
2018-12-01T10:27:56.646Z,10.91
2018-12-01T10:28:56.611Z,10.67
2018-12-01T10:29:56.584Z,10.73
2018-12-01T10:30:56.549Z,10.64
2018-12-01T10:31:56.516Z,10.63
2018-12-01T10:32:56.468Z,10.55
2018-12-01T10:33:56.454Z,10.60
2018-12-01T10:34:56.405Z,10.55
2018-12-01T10:35:56.370Z,10.44
2018-12-01T10:36:56.335Z,10.40
2018-12-01T10:37:56.327Z,10.59
2018-12-01T10:38:56.274Z,10.44
2018-12-01T10:39:56.226Z,10.25
2018-12-01T10:40:56.191Z,10.18
2018-12-01T10:41:56.207Z,10.04
2018-12-01T10:42:56.114Z,10.11
2018-12-01T10:43:56.088Z,9.96
2018-12-01T10:44:56.049Z,9.96
2018-12-01T10:45:55.997Z,9.96
2018-12-01T10:46:55.987Z,10.09
2018-12-01T10:47:55.952Z,9.97
2018-12-01T10:48:55.909Z,9.96
2018-12-01T10:49:55.866Z,10.08
2018-12-01T10:50:55.828Z,10.15
2018-12-01T10:51:55.802Z,10.25
2018-12-01T10:52:55.761Z,10.25
2018-12-01T10:53:55.730Z,10.09
2018-12-01T10:54:55.684Z,10.07
2018-12-01T10:55:55.639Z,10.02
2018-12-01T10:56:55.599Z,10.23
2018-12-01T10:57:55.568Z,10.45
2018-12-01T10:58:55.536Z,10.42
2018-12-01T10:59:55.509Z,10.26
2018-12-01T11:00:55.475Z,10.42
2018-12-01T11:01:55.442Z,10.73
2018-12-01T11:02:55.693Z,11.22
2018-12-01T11:03:55.362Z,11.49
2018-12-01T11:04:55.322Z,11.72
2018-12-01T11:05:55.289Z,11.91
2018-12-01T11:06:55.259Z,12.39
2018-12-01T11:07:55.213Z,12.19
2018-12-01T11:08:55.162Z,11.88
2018-12-01T11:09:55.140Z,11.29
2018-12-01T11:10:55.477Z,10.94
2018-12-01T11:11:55.075Z,11.07
2018-12-01T11:12:55.029Z,11.11
2018-12-01T11:13:54.997Z,11.76
2018-12-01T11:14:54.962Z,12.09
2018-12-01T11:15:55.332Z,12.24
2018-12-01T11:16:54.916Z,12.05
2018-12-01T11:17:54.914Z,12.13
2018-12-01T11:18:54.829Z,12.34
2018-12-01T11:19:54.793Z,12.53
2018-12-01T11:20:54.752Z,12.16
2018-12-01T11:21:54.718Z,11.75
2018-12-01T11:22:57.974Z,11.55
2018-12-01T11:23:54.650Z,11.51
2018-12-01T11:24:54.611Z,11.65
2018-12-01T11:25:54.585Z,11.67
2018-12-01T11:26:54.551Z,11.43
2018-12-01T11:27:54.496Z,11.90
2018-12-01T11:28:54.478Z,11.90
2018-12-01T11:29:54.444Z,12.16
2018-12-01T11:30:54.419Z,12.16
2018-12-01T11:31:54.385Z,11.83
2018-12-01T11:32:54.355Z,11.32
2018-12-01T11:33:54.317Z,10.94
2018-12-01T11:34:54.279Z,10.73
2018-12-01T11:35:54.246Z,10.48
2018-12-01T11:36:54.230Z,10.25
2018-12-01T11:37:54.179Z,10.25
2018-12-01T11:38:54.146Z,10.23
2018-12-01T11:39:54.110Z,10.12
2018-12-01T11:40:54.090Z,9.96
2018-12-01T11:41:54.063Z,9.78
2018-12-01T11:42:54.011Z,9.69
2018-12-01T11:43:53.981Z,9.74
2018-12-01T11:44:56.895Z,9.51
2018-12-01T11:45:53.917Z,9.36
2018-12-01T11:46:53.876Z,9.39
2018-12-01T11:47:53.844Z,9.50
2018-12-01T11:48:53.822Z,9.86
2018-12-01T11:49:53.779Z,10.30
2018-12-01T11:50:53.749Z,10.42
2018-12-01T11:51:53.788Z,10.12
2018-12-01T11:52:53.661Z,10.02
2018-12-01T11:53:53.628Z,9.81
2018-12-01T11:54:53.602Z,9.66
2018-12-01T11:55:53.583Z,9.47
2018-12-01T11:56:53.539Z,9.51
2018-12-01T11:57:53.505Z,9.39
2018-12-01T11:58:53.460Z,9.43
2018-12-01T11:59:53.430Z,9.54
2018-12-01T12:00:53.387Z,9.36
2018-12-01T12:01:53.346Z,9.39
2018-12-01T12:02:53.325Z,9.53
2018-12-01T12:03:53.281Z,9.51
2018-12-01T12:04:53.237Z,9.58
2018-12-01T12:05:53.188Z,9.60
2018-12-01T12:06:53.163Z,9.58
2018-12-01T12:07:53.132Z,9.69
2018-12-01T12:08:53.098Z,9.58
2018-12-01T12:09:53.063Z,9.79
2018-12-01T12:10:53.007Z,10.09
2018-12-01T12:11:52.984Z,10.22
2018-12-01T12:12:52.939Z,10.08
2018-12-01T12:13:52.899Z,9.86
2018-12-01T12:14:52.879Z,9.75
2018-12-01T12:15:52.814Z,9.60
2018-12-01T12:16:52.787Z,9.50
2018-12-01T12:17:52.764Z,9.40
2018-12-01T12:18:52.729Z,9.39
2018-12-01T12:19:52.686Z,9.43
2018-12-01T12:20:52.640Z,9.36
2018-12-01T12:21:52.613Z,9.38
2018-12-01T12:22:52.575Z,9.35
2018-12-01T12:23:52.525Z,9.21
2018-12-01T12:24:52.510Z,9.18
2018-12-01T12:25:52.464Z,9.20
2018-12-01T12:26:52.424Z,9.21
2018-12-01T12:27:52.388Z,9.24
2018-12-01T12:28:52.360Z,9.32
2018-12-01T12:29:52.320Z,9.29
2018-12-01T12:30:52.308Z,9.29
2018-12-01T12:31:52.240Z,9.20
2018-12-01T12:32:52.216Z,9.18
2018-12-01T12:33:52.168Z,9.23
2018-12-01T12:34:52.119Z,9.24
2018-12-01T12:35:52.080Z,9.18
2018-12-01T12:36:52.057Z,9.20
2018-12-01T12:37:52.011Z,9.21
2018-12-01T12:38:51.966Z,9.26
2018-12-01T12:39:51.921Z,9.31
2018-12-01T12:40:51.885Z,9.43
2018-12-01T12:41:51.847Z,9.39
2018-12-01T12:42:51.822Z,9.38
2018-12-01T12:43:51.773Z,9.24
2018-12-01T12:44:51.748Z,9.18
2018-12-01T12:45:51.682Z,9.21
2018-12-01T12:46:51.656Z,9.23
2018-12-01T12:47:51.622Z,9.13
2018-12-01T12:48:51.584Z,9.11
2018-12-01T12:49:51.529Z,8.95
2018-12-01T12:50:53.246Z,8.92
2018-12-01T12:51:51.460Z,8.81
2018-12-01T12:52:51.406Z,8.80
2018-12-01T12:53:51.404Z,8.91
2018-12-01T12:54:51.331Z,8.77
2018-12-01T12:55:51.309Z,8.84
2018-12-01T12:56:51.266Z,8.80
2018-12-01T12:57:51.212Z,8.87
2018-12-01T12:58:51.171Z,8.87
2018-12-01T12:59:51.167Z,8.80
2018-12-01T13:00:51.119Z,8.70
2018-12-01T13:01:51.060Z,8.76
2018-12-01T13:02:51.024Z,8.65
2018-12-01T13:03:50.992Z,8.62
2018-12-01T13:04:50.955Z,8.74
2018-12-01T13:05:50.909Z,8.74
2018-12-01T13:06:50.896Z,8.81
2018-12-01T13:07:50.828Z,8.80
2018-12-01T13:08:50.795Z,8.81
2018-12-01T13:09:50.747Z,8.89
2018-12-01T13:10:50.717Z,8.89
2018-12-01T13:11:50.673Z,8.86
2018-12-01T13:12:51.802Z,8.77